KJYOKOXB

Guest
Details From KJYO - Leesburg Executive
To KOXB - OCEAN CITY MUNI
Flight Number -
Tags generated
Created
Modified
Stats Distance 123 nm / 228 km
Max Altitude 9,400 ft / 2,865 m
Waypoints 3
Social Downloads 0
Likes 0
Share VATSIM

Download

Looking for another format? Having issues loading an existing format? Contact us
Advertisement - Login to hide

Notes

Basic altitude profile: - Ascent Rate: 2500ft/min - Ascent Speed: 85kts - Cruise Altitude: 1350000ft - Cruise Speed: 155kts - Descent Rate: 1500ft/min - Descent Speed: 125kts Options: - Use NATs: yes - Use PACOTS: yes - Use low airways: yes - Use high airways: no

Route

KJYO KRANT KOXB

ID Type Via Altitude Latitude Longitude Leg Dist Tot Dist Heading (true) Name
O KJYO APT - 0 ft / 0 m 39.07797˚ -77.55750˚ - 0 nm - Leesburg Executive
KRANT FIX - 9,400 ft / 2,865 m 38.91856˚ -76.96564˚ 29 nm 29 nm 109° / 109° -
O KOXB APT - 0 ft / 0 m 38.31048˚ -75.12428˚ 93 nm 123 nm 112° / 113° OCEAN CITY MUNI

Altitude Profile

Advertisement - Login to hide

KJYO

Details ICAO KJYO (JYO)
Name Leesburg Executive
Region United States
Timezone America/New_York (UTC-5.0)
Stats Elevation 389 ft / 119 m (AMSL)
Location 39.077969° -77.557499°
Runways 1
Magnetic Variation 10.560° W

METAR

KJYO 121035Z AUTO 19006KT 10SM CLR 03/00 A2962 RMK AO2

Decode

TAF

Not found

Departure Runways

ID Width Length Bearing (true) Bearing (mag) Surface Threshold Offset Overrun Length
17 100 ft / 30 m 5,507 ft / 1,679 m 161.36° 171.92° Asphalt 0 ft / 0 m 0 ft / 0 m
35 100 ft / 30 m 5,507 ft / 1,679 m 341.36° 351.92° Asphalt 0 ft / 0 m 0 ft / 0 m

KOXB

Details ICAO KOXB
Name OCEAN CITY MUNI
Region United States
Timezone America/New_York (UTC-5.0)
Stats Elevation 11 ft / 3 m (AMSL)
Location 38.310483° -75.124276°
Runways 2
Magnetic Variation 11.784° W

METAR

KOXB 120953Z AUTO 22008KT 10SM BKN120 08/04 A2976 RMK AO2 SLP078 T00780039

Decode

TAF

Not found

Destination Runways

ID Width Length Bearing (true) Bearing (mag) Surface Threshold Offset Overrun Length
02 75 ft / 23 m 3,206 ft / 977 m 10.10° 21.88° Asphalt 0 ft / 0 m 0 ft / 0 m
14 75 ft / 23 m 4,071 ft / 1,241 m 133.24° 145.02° Asphalt 0 ft / 0 m 0 ft / 0 m
20 75 ft / 23 m 3,206 ft / 977 m 190.10° 201.88° Asphalt 0 ft / 0 m 0 ft / 0 m
32 75 ft / 23 m 4,071 ft / 1,241 m 313.25° 325.03° Asphalt 0 ft / 0 m 0 ft / 0 m